createdAt,value
2024-03-12T00:01:50.020Z,77.08
2024-03-12T00:04:18.309Z,76.85
2024-03-12T00:06:46.466Z,77.01
2024-03-12T00:09:14.460Z,76.90
2024-03-12T00:11:43.627Z,77.05
2024-03-12T00:14:11.468Z,76.82
2024-03-12T00:16:41.947Z,76.99
2024-03-12T00:19:10.830Z,77.20
2024-03-12T00:21:38.901Z,77.12
2024-03-12T00:24:06.779Z,77.24
2024-03-12T00:26:34.569Z,77.50
2024-03-12T00:29:02.842Z,77.34
2024-03-12T00:31:30.676Z,77.47
2024-03-12T00:34:01.819Z,77.43
2024-03-12T00:36:30.556Z,77.09
2024-03-12T00:38:58.891Z,77.62
2024-03-12T00:41:26.653Z,77.23
2024-03-12T00:43:55.387Z,77.58
2024-03-12T00:46:23.637Z,77.49
2024-03-12T00:48:51.969Z,77.39
2024-03-12T00:51:19.778Z,77.51
2024-03-12T00:53:50.454Z,77.79
2024-03-12T00:56:18.288Z,77.73
2024-03-12T00:58:46.036Z,77.43
2024-03-12T01:01:16.629Z,77.58
2024-03-12T01:03:44.783Z,77.82
2024-03-12T01:06:12.676Z,77.48
2024-03-12T01:08:40.927Z,78.01
2024-03-12T01:11:08.765Z,77.97
2024-03-12T01:13:36.955Z,77.90
2024-03-12T01:16:05.028Z,77.78
2024-03-12T01:18:33.059Z,77.81
2024-03-12T01:21:01.119Z,78.03
2024-03-12T01:23:28.947Z,78.00
2024-03-12T01:25:56.759Z,78.09
2024-03-12T01:28:25.167Z,78.27
2024-03-12T01:30:53.126Z,77.78
2024-03-12T01:33:20.934Z,78.54
2024-03-12T01:35:49.036Z,77.95
2024-03-12T01:38:16.809Z,78.03
2024-03-12T01:40:44.622Z,78.35
2024-03-12T01:43:14.296Z,78.17
2024-03-12T01:45:44.018Z,78.47
2024-03-12T01:48:12.976Z,78.64
2024-03-12T01:50:41.665Z,78.13
2024-03-12T01:53:12.716Z,78.50
2024-03-12T01:55:45.095Z,78.16
2024-03-12T01:58:15.995Z,78.38
2024-03-12T02:00:45.902Z,78.09
2024-03-12T02:03:14.064Z,78.24
2024-03-12T02:05:43.064Z,78.11
2024-03-12T02:08:12.012Z,78.15
2024-03-12T02:10:39.798Z,78.00
2024-03-12T02:13:07.879Z,77.99
2024-03-12T02:15:37.913Z,78.07
2024-03-12T02:18:09.296Z,78.09
2024-03-12T02:20:39.512Z,78.24
2024-03-12T02:23:07.350Z,78.32
2024-03-12T02:25:35.103Z,78.40
2024-03-12T02:28:04.034Z,78.23
2024-03-12T02:30:32.178Z,78.43
2024-03-12T02:33:01.080Z,78.33
2024-03-12T02:35:29.214Z,78.34
2024-03-12T02:37:56.990Z,78.39
2024-03-12T02:40:24.910Z,78.58
2024-03-12T02:42:52.751Z,78.54
2024-03-12T02:45:22.401Z,78.47
2024-03-12T02:47:50.607Z,78.62
2024-03-12T02:50:19.632Z,78.47
2024-03-12T02:52:47.494Z,78.65
2024-03-12T02:55:15.676Z,78.58
2024-03-12T02:57:44.641Z,78.44
2024-03-12T03:00:14.741Z,78.70
2024-03-12T03:02:45.164Z,78.82
2024-03-12T03:05:14.631Z,78.60
2024-03-12T03:07:43.800Z,78.60
2024-03-12T03:10:13.509Z,78.71
2024-03-12T03:12:46.319Z,78.64
2024-03-12T03:15:15.031Z,78.68
2024-03-12T03:17:44.299Z,78.52
2024-03-12T03:20:13.537Z,78.73
2024-03-12T03:22:42.580Z,78.78
2024-03-12T03:25:13.298Z,78.89
2024-03-12T03:27:41.304Z,78.90
2024-03-12T03:30:11.570Z,79.05
2024-03-12T03:32:40.685Z,78.89
2024-03-12T03:35:08.832Z,79.02
2024-03-12T03:37:36.926Z,78.95
2024-03-12T03:40:05.987Z,79.05
2024-03-12T03:42:34.000Z,78.83
2024-03-12T03:45:01.744Z,78.93
2024-03-12T03:47:35.905Z,78.92
2024-03-12T03:50:05.214Z,79.01
2024-03-12T03:52:33.136Z,78.91
2024-03-12T03:55:01.016Z,79.14
2024-03-12T03:57:31.892Z,79.04
2024-03-12T03:59:59.706Z,78.79
2024-03-12T04:02:28.274Z,79.01
2024-03-12T04:04:57.071Z,79.14
2024-03-12T04:07:26.596Z,79.21
2024-03-12T04:09:56.141Z,78.90
2024-03-12T04:12:24.156Z,79.27
2024-03-12T04:14:52.152Z,79.24
2024-03-12T04:17:20.992Z,79.43
2024-03-12T04:19:49.187Z,79.18
2024-03-12T04:22:20.665Z,79.38
2024-03-12T04:24:48.458Z,79.49
2024-03-12T04:27:16.849Z,79.44
2024-03-12T04:29:44.807Z,79.59
2024-03-12T04:32:12.644Z,79.61
2024-03-12T04:34:41.187Z,79.48
2024-03-12T04:37:09.132Z,79.66
2024-03-12T04:39:39.689Z,79.64
2024-03-12T04:42:08.088Z,79.70
2024-03-12T04:44:36.235Z,79.66
2024-03-12T04:47:05.250Z,79.87
2024-03-12T04:49:33.069Z,79.89
2024-03-12T04:52:01.516Z,79.89
2024-03-12T04:54:29.441Z,79.83
2024-03-12T04:56:58.449Z,80.03
2024-03-12T04:59:26.359Z,79.97
2024-03-12T05:01:54.581Z,80.07
2024-03-12T05:04:23.986Z,80.16
2024-03-12T05:06:52.140Z,80.12
2024-03-12T05:09:20.392Z,80.22
2024-03-12T05:11:49.127Z,80.25
2024-03-12T05:14:17.011Z,80.06
2024-03-12T05:16:47.772Z,80.19
2024-03-12T05:19:15.586Z,80.11
2024-03-12T05:21:48.605Z,80.23
2024-03-12T05:24:19.288Z,80.16
2024-03-12T05:26:50.597Z,80.27
2024-03-12T05:29:27.356Z,80.31
2024-03-12T05:31:55.197Z,80.44
2024-03-12T05:34:30.464Z,80.27
2024-03-12T05:37:05.666Z,80.41
2024-03-12T05:39:59.663Z,80.34
2024-03-12T05:42:46.985Z,80.44
2024-03-12T05:45:33.422Z,80.57
2024-03-12T05:48:13.673Z,80.51
2024-03-12T05:50:43.733Z,80.66
2024-03-12T05:53:12.107Z,80.62
2024-03-12T05:55:42.908Z,80.76
2024-03-12T05:58:13.789Z,80.69
2024-03-12T06:00:41.654Z,80.89
2024-03-12T06:03:09.398Z,80.82
2024-03-12T06:05:37.199Z,80.92
2024-03-12T06:08:05.831Z,81.06
2024-03-12T06:10:33.613Z,81.09
2024-03-12T06:13:01.591Z,80.99
2024-03-12T06:15:31.052Z,80.93
2024-03-12T06:17:58.921Z,81.09
2024-03-12T06:20:28.584Z,81.12
2024-03-12T06:22:56.813Z,81.15
2024-03-12T06:25:24.619Z,81.19
2024-03-12T06:27:53.526Z,81.18
2024-03-12T06:30:21.466Z,81.36
2024-03-12T06:32:49.377Z,81.32
2024-03-12T06:35:18.417Z,81.38
2024-03-12T06:37:46.221Z,81.48
2024-03-12T06:40:18.532Z,81.43
2024-03-12T06:42:46.615Z,81.42
2024-03-12T06:45:14.524Z,81.50
2024-03-12T06:47:43.059Z,81.44
2024-03-12T06:50:11.529Z,81.53
2024-03-12T06:52:39.406Z,81.55
2024-03-12T06:55:17.005Z,81.61
2024-03-12T06:57:49.417Z,81.53
2024-03-12T07:00:24.435Z,81.59
2024-03-12T07:02:52.593Z,81.61
2024-03-12T07:05:21.611Z,81.56
2024-03-12T07:07:49.463Z,81.49
2024-03-12T07:10:18.555Z,81.59
2024-03-12T07:12:47.372Z,81.52
2024-03-12T07:15:17.710Z,81.57
2024-03-12T07:17:45.636Z,81.54
2024-03-12T07:20:16.671Z,81.69
2024-03-12T07:22:46.737Z,81.61
2024-03-12T07:25:15.149Z,81.63
2024-03-12T07:27:43.386Z,81.80
2024-03-12T07:30:12.032Z,81.56
2024-03-12T07:32:40.441Z,81.65
2024-03-12T07:35:11.047Z,81.57
2024-03-12T07:37:40.738Z,81.59
2024-03-12T07:40:10.931Z,81.68
2024-03-12T07:42:42.952Z,81.61
2024-03-12T07:45:11.814Z,81.74
2024-03-12T07:47:42.312Z,81.75
2024-03-12T07:50:12.786Z,81.84
2024-03-12T07:52:40.738Z,81.75
2024-03-12T07:55:11.266Z,81.94
2024-03-12T07:57:39.591Z,81.83
2024-03-12T08:00:16.334Z,81.83
2024-03-12T08:02:44.824Z,81.95
2024-03-12T08:05:13.655Z,82.06
2024-03-12T08:07:41.717Z,82.02
2024-03-12T08:10:11.354Z,81.96
2024-03-12T08:12:41.442Z,81.96
2024-03-12T08:15:14.592Z,82.16
2024-03-12T08:17:44.630Z,82.17
2024-03-12T08:20:15.077Z,82.29
2024-03-12T08:22:43.052Z,82.23
2024-03-12T08:25:12.481Z,82.26
2024-03-12T08:27:43.810Z,82.24
2024-03-12T08:30:13.456Z,82.20
2024-03-12T08:32:44.607Z,82.34
2024-03-12T08:35:12.511Z,82.21
2024-03-12T08:37:40.446Z,82.33
2024-03-12T08:40:09.430Z,82.46
2024-03-12T08:42:44.934Z,82.24
2024-03-12T08:45:22.501Z,82.33
2024-03-12T08:47:52.541Z,82.33
2024-03-12T08:50:20.536Z,82.54
2024-03-12T08:52:48.382Z,82.48
2024-03-12T08:55:18.156Z,82.51
2024-03-12T08:57:46.161Z,82.45
2024-03-12T09:00:14.557Z,82.45
2024-03-12T09:02:43.057Z,82.72
2024-03-12T09:05:11.172Z,82.70
2024-03-12T09:07:39.437Z,82.55
2024-03-12T09:10:13.065Z,82.53
2024-03-12T09:12:44.015Z,82.69
2024-03-12T09:15:12.110Z,82.65
2024-03-12T09:17:40.213Z,82.76
2024-03-12T09:20:11.722Z,82.88
2024-03-12T09:22:41.052Z,82.71
2024-03-12T09:25:09.934Z,82.80
2024-03-12T09:27:38.873Z,82.98
2024-03-12T09:30:08.827Z,82.95
2024-03-12T09:32:36.686Z,82.99
2024-03-12T09:35:05.107Z,83.02
2024-03-12T09:37:37.386Z,82.98
2024-03-12T09:40:09.240Z,83.10
2024-03-12T09:42:38.401Z,83.10
2024-03-12T09:45:09.829Z,83.31
2024-03-12T09:47:38.304Z,83.16
2024-03-12T09:50:12.724Z,83.04
2024-03-12T09:52:41.387Z,83.15
2024-03-12T09:55:12.260Z,83.25
2024-03-12T09:57:45.956Z,83.17
2024-03-12T10:00:20.789Z,83.26
2024-03-12T10:02:51.537Z,83.25
2024-03-12T10:05:24.491Z,83.28
2024-03-12T10:08:08.919Z,83.37
2024-03-12T10:10:39.413Z,83.40
2024-03-12T10:13:16.025Z,83.34
2024-03-12T10:16:00.725Z,83.48
2024-03-12T10:18:31.082Z,83.50
2024-03-12T10:21:02.697Z,83.42
2024-03-12T10:23:34.709Z,83.41
2024-03-12T10:26:20.587Z,83.67
2024-03-12T10:28:52.249Z,83.53
2024-03-12T10:31:21.476Z,83.49
2024-03-12T10:33:50.631Z,83.53
2024-03-12T10:36:33.558Z,83.54
2024-03-12T10:39:13.520Z,83.38
2024-03-12T10:41:44.461Z,83.49
2024-03-12T10:44:12.636Z,83.54
2024-03-12T10:46:41.836Z,83.48
2024-03-12T10:49:13.918Z,83.54
2024-03-12T10:51:44.169Z,83.57
2024-03-12T10:54:15.665Z,83.54
2024-03-12T10:56:47.020Z,83.61
2024-03-12T10:59:17.634Z,83.69
2024-03-12T11:01:46.255Z,83.52
2024-03-12T11:04:14.913Z,83.71
2024-03-12T11:06:42.797Z,83.64
2024-03-12T11:09:19.267Z,83.61
2024-03-12T11:11:48.380Z,83.71
2024-03-12T11:14:17.018Z,83.86
2024-03-12T11:16:44.860Z,83.65
2024-03-12T11:19:24.596Z,83.71
2024-03-12T11:21:53.918Z,84.05
2024-03-12T11:24:44.372Z,83.93
2024-03-12T11:27:21.264Z,83.95
2024-03-12T11:30:15.882Z,83.94
2024-03-12T11:32:52.320Z,83.95
2024-03-12T11:35:22.943Z,83.94
2024-03-12T11:38:00.175Z,84.04
2024-03-12T11:40:32.128Z,84.03
2024-03-12T11:43:00.467Z,84.07
2024-03-12T11:45:37.618Z,84.25
2024-03-12T11:48:08.951Z,84.06
2024-03-12T11:50:40.817Z,84.04
2024-03-12T11:53:23.740Z,84.02
2024-03-12T11:56:06.370Z,84.07
2024-03-12T11:58:42.400Z,84.22
2024-03-12T12:01:12.136Z,83.98
2024-03-12T12:03:40.664Z,84.25
2024-03-12T12:06:11.606Z,84.15
2024-03-12T12:08:46.122Z,84.28
2024-03-12T12:11:21.276Z,84.21
2024-03-12T12:13:49.533Z,84.21
2024-03-12T12:16:18.831Z,84.12
2024-03-12T12:18:48.252Z,84.08
2024-03-12T12:21:20.177Z,83.84
2024-03-12T12:23:49.119Z,83.69
2024-03-12T12:26:22.381Z,83.53
2024-03-12T12:28:53.895Z,83.64
2024-03-12T12:31:23.563Z,83.57
2024-03-12T12:33:53.062Z,83.66
2024-03-12T12:36:26.840Z,83.39
2024-03-12T12:39:02.456Z,83.48
2024-03-12T12:41:44.197Z,83.59
2024-03-12T12:44:18.344Z,83.54
2024-03-12T12:46:49.729Z,83.53
2024-03-12T12:49:18.918Z,83.39
2024-03-12T12:51:48.088Z,83.47
2024-03-12T12:54:17.254Z,83.64
2024-03-12T12:56:48.038Z,83.27
2024-03-12T12:59:21.761Z,83.63
2024-03-12T13:01:50.788Z,83.31
2024-03-12T13:04:28.433Z,83.17
2024-03-12T13:06:58.458Z,83.44
2024-03-12T13:09:33.690Z,83.27
2024-03-12T13:12:09.202Z,82.88
2024-03-12T13:14:38.512Z,82.47
2024-03-12T13:17:10.407Z,82.23
2024-03-12T13:19:38.543Z,82.54
2024-03-12T13:22:13.471Z,82.48
2024-03-12T13:24:45.539Z,82.17
2024-03-12T13:27:15.305Z,82.02
2024-03-12T13:29:46.971Z,82.08
2024-03-12T13:32:15.322Z,81.70
2024-03-12T13:34:43.423Z,81.62
2024-03-12T13:37:14.007Z,81.59
2024-03-12T13:39:42.079Z,81.30
2024-03-12T13:42:11.591Z,81.27
2024-03-12T13:44:39.483Z,81.50
2024-03-12T13:47:07.436Z,81.02
2024-03-12T13:49:35.547Z,81.34
2024-03-12T13:52:03.626Z,81.42
2024-03-12T13:54:31.906Z,81.08
2024-03-12T13:56:59.884Z,80.88
2024-03-12T13:59:29.023Z,80.93
2024-03-12T14:01:58.169Z,80.98
2024-03-12T14:04:32.190Z,80.89
2024-03-12T14:07:00.789Z,80.76
2024-03-12T14:09:28.890Z,80.94
2024-03-12T14:11:56.746Z,80.80
2024-03-12T14:14:24.790Z,80.64
2024-03-12T14:16:53.052Z,80.23
2024-03-12T14:19:21.975Z,80.11
2024-03-12T14:21:49.924Z,80.20
2024-03-12T14:24:17.990Z,80.10
2024-03-12T14:26:45.765Z,80.11
2024-03-12T14:29:13.522Z,79.96
2024-03-12T14:31:42.818Z,79.49
2024-03-12T14:34:11.036Z,79.44
2024-03-12T14:36:39.145Z,79.21
2024-03-12T14:39:09.158Z,78.83
2024-03-12T14:41:37.173Z,78.67
2024-03-12T14:44:06.061Z,78.94
2024-03-12T14:46:34.614Z,78.84
2024-03-12T14:49:02.645Z,78.85
2024-03-12T14:51:30.895Z,78.47
2024-03-12T14:53:58.718Z,78.89
2024-03-12T14:56:26.993Z,78.39
2024-03-12T14:58:55.253Z,78.42
2024-03-12T15:01:24.306Z,78.56
2024-03-12T15:03:52.347Z,78.33
2024-03-12T15:06:20.207Z,78.23
2024-03-12T15:08:48.195Z,77.66
2024-03-12T15:11:16.086Z,77.79
2024-03-12T15:13:44.546Z,77.87
2024-03-12T15:16:12.494Z,77.63
2024-03-12T15:18:40.918Z,77.81
2024-03-12T15:21:09.067Z,77.63
2024-03-12T15:23:36.937Z,77.18
2024-03-12T15:26:06.553Z,76.78
2024-03-12T15:28:34.858Z,76.77
2024-03-12T15:31:05.191Z,77.04
2024-03-12T15:33:34.446Z,77.05
2024-03-12T15:36:02.384Z,77.37
2024-03-12T15:38:33.214Z,77.95
2024-03-12T15:41:00.953Z,77.95
2024-03-12T15:43:29.032Z,78.18
2024-03-12T15:45:59.667Z,78.34
2024-03-12T15:48:27.523Z,78.23
2024-03-12T15:50:55.927Z,78.33
2024-03-12T15:53:24.162Z,78.33
2024-03-12T15:55:52.229Z,78.50
2024-03-12T15:58:20.200Z,78.60
2024-03-12T16:00:48.132Z,78.42
2024-03-12T16:03:16.268Z,78.33
2024-03-12T16:05:44.267Z,78.31
2024-03-12T16:08:12.476Z,78.45
2024-03-12T16:10:40.197Z,78.31
2024-03-12T16:13:09.423Z,78.58
2024-03-12T16:15:38.585Z,78.24
2024-03-12T16:18:07.022Z,78.63
2024-03-12T16:20:35.035Z,78.54
2024-03-12T16:23:03.764Z,78.88
2024-03-12T16:25:31.738Z,78.77
2024-03-12T16:27:59.673Z,78.69
2024-03-12T16:30:27.733Z,78.86
2024-03-12T16:32:56.102Z,79.07
2024-03-12T16:35:24.851Z,79.43
2024-03-12T16:37:52.717Z,79.17
2024-03-12T16:40:21.211Z,78.99
2024-03-12T16:42:49.830Z,79.10
2024-03-12T16:45:17.768Z,79.46
2024-03-12T16:47:45.666Z,79.65
2024-03-12T16:50:16.395Z,79.72
2024-03-12T16:52:44.706Z,79.72
2024-03-12T16:55:13.493Z,79.73
2024-03-12T16:57:42.096Z,79.81
2024-03-12T17:00:15.604Z,79.66
2024-03-12T17:02:44.201Z,79.89
2024-03-12T17:05:23.257Z,80.00
2024-03-12T17:07:54.278Z,79.85
2024-03-12T17:10:25.312Z,79.67
2024-03-12T17:12:53.735Z,79.68
2024-03-12T17:15:22.570Z,79.94
2024-03-12T17:17:50.918Z,79.94
2024-03-12T17:20:18.869Z,79.52
2024-03-12T17:22:48.071Z,79.78
2024-03-12T17:25:18.585Z,79.67
2024-03-12T17:27:49.038Z,79.92
2024-03-12T17:30:17.062Z,79.84
2024-03-12T17:32:47.411Z,79.98
2024-03-12T17:35:16.581Z,79.73
2024-03-12T17:37:45.436Z,79.79
2024-03-12T17:40:17.070Z,79.80
2024-03-12T17:42:46.655Z,79.79
2024-03-12T17:45:16.864Z,79.90
2024-03-12T17:47:52.600Z,80.04
2024-03-12T17:50:25.809Z,80.11
2024-03-12T17:52:55.450Z,80.10
2024-03-12T17:55:23.657Z,80.09
2024-03-12T17:57:52.727Z,80.14
2024-03-12T18:00:22.396Z,79.94
2024-03-12T18:02:51.140Z,79.93
2024-03-12T18:05:23.198Z,80.12
2024-03-12T18:07:54.545Z,80.14
2024-03-12T18:10:26.697Z,80.16
2024-03-12T18:12:55.028Z,80.10
2024-03-12T18:15:25.200Z,80.20
2024-03-12T18:17:54.353Z,80.20
2024-03-12T18:20:31.627Z,80.19
2024-03-12T18:22:59.989Z,80.49
2024-03-12T18:25:28.015Z,80.51
2024-03-12T18:27:59.223Z,80.60
2024-03-12T18:30:28.185Z,80.43
2024-03-12T18:32:56.246Z,80.63
2024-03-12T18:35:25.272Z,80.59
2024-03-12T18:37:53.230Z,80.42
2024-03-12T18:40:23.387Z,80.46
2024-03-12T18:42:52.338Z,80.50
2024-03-12T18:45:23.548Z,80.68
2024-03-12T18:47:52.270Z,80.70
2024-03-12T18:50:22.068Z,80.64
2024-03-12T18:52:50.426Z,80.58
2024-03-12T18:55:19.471Z,80.60
2024-03-12T18:57:47.976Z,80.75
2024-03-12T19:00:19.861Z,80.65
2024-03-12T19:02:49.454Z,80.75
2024-03-12T19:05:23.283Z,80.73
2024-03-12T19:07:52.435Z,80.93
2024-03-12T19:10:21.127Z,80.99
2024-03-12T19:12:50.636Z,81.02
2024-03-12T19:15:22.758Z,81.10
2024-03-12T19:17:52.055Z,81.01
2024-03-12T19:20:21.169Z,81.31
2024-03-12T19:22:51.098Z,81.29
2024-03-12T19:25:20.859Z,81.33
2024-03-12T19:27:50.337Z,81.47
2024-03-12T19:30:21.707Z,81.41
2024-03-12T19:32:53.498Z,81.50
2024-03-12T19:35:22.635Z,81.49
2024-03-12T19:37:51.041Z,81.68
2024-03-12T19:40:22.904Z,81.54
2024-03-12T19:42:52.464Z,81.63
2024-03-12T19:45:26.979Z,81.80
2024-03-12T19:47:57.934Z,81.80
2024-03-12T19:50:26.458Z,82.00
2024-03-12T19:52:56.515Z,81.94
2024-03-12T19:55:26.572Z,81.96
2024-03-12T19:58:00.777Z,82.11
2024-03-12T20:00:31.981Z,82.09
2024-03-12T20:03:01.810Z,82.10
2024-03-12T20:05:31.584Z,82.23
2024-03-12T20:08:05.561Z,82.11
2024-03-12T20:10:34.235Z,82.27
2024-03-12T20:13:05.849Z,82.20
2024-03-12T20:15:34.251Z,82.27
2024-03-12T20:18:02.749Z,82.29
2024-03-12T20:20:31.572Z,82.37
2024-03-12T20:22:59.987Z,82.29
2024-03-12T20:25:28.083Z,82.27
2024-03-12T20:27:56.764Z,82.50
2024-03-12T20:30:29.280Z,82.33
2024-03-12T20:33:00.034Z,82.37
2024-03-12T20:35:31.611Z,82.39
2024-03-12T20:37:59.798Z,82.44
2024-03-12T20:40:29.135Z,82.46
2024-03-12T20:43:00.450Z,82.51
2024-03-12T20:45:30.339Z,82.56
2024-03-12T20:48:01.843Z,82.59
2024-03-12T20:50:30.233Z,82.35
2024-03-12T20:52:58.813Z,82.62
2024-03-12T20:55:26.747Z,82.51
2024-03-12T20:57:54.661Z,82.57
2024-03-12T21:00:29.804Z,82.53
2024-03-12T21:02:58.435Z,82.62
2024-03-12T21:05:32.104Z,82.65
2024-03-12T21:08:00.339Z,82.59
2024-03-12T21:10:28.415Z,82.66
2024-03-12T21:12:57.162Z,82.80
2024-03-12T21:15:26.148Z,82.80
2024-03-12T21:17:54.349Z,82.80
2024-03-12T21:20:34.591Z,82.98
2024-03-12T21:23:07.245Z,82.75
2024-03-12T21:25:35.434Z,82.49
2024-03-12T21:28:04.296Z,82.15
2024-03-12T21:30:32.815Z,81.99
2024-03-12T21:33:01.072Z,81.85
2024-03-12T21:35:30.167Z,81.66
2024-03-12T21:37:58.807Z,81.49
2024-03-12T21:40:28.162Z,81.40
2024-03-12T21:42:56.267Z,81.34
2024-03-12T21:45:24.916Z,81.44
2024-03-12T21:47:54.552Z,81.32
2024-03-12T21:50:23.053Z,81.21
2024-03-12T21:52:51.238Z,81.08
2024-03-12T21:55:19.864Z,80.91
2024-03-12T21:57:48.560Z,80.64
2024-03-12T22:00:20.966Z,80.80
2024-03-12T22:02:50.599Z,80.65
2024-03-12T22:05:21.440Z,80.71
2024-03-12T22:07:52.425Z,80.49
2024-03-12T22:10:20.670Z,80.48
2024-03-12T22:12:49.827Z,80.39
2024-03-12T22:15:18.160Z,80.52
2024-03-12T22:17:47.262Z,80.53
2024-03-12T22:20:17.618Z,80.10
2024-03-12T22:22:46.585Z,80.15
2024-03-12T22:25:16.221Z,80.15
2024-03-12T22:27:45.415Z,79.97
2024-03-12T22:30:14.495Z,80.19
2024-03-12T22:32:46.543Z,80.17
2024-03-12T22:35:15.163Z,80.32
2024-03-12T22:37:44.922Z,80.21
2024-03-12T22:40:14.048Z,80.21
2024-03-12T22:42:42.732Z,80.02
2024-03-12T22:45:13.313Z,80.04
2024-03-12T22:47:42.974Z,80.14
2024-03-12T22:50:11.819Z,80.28
2024-03-12T22:52:42.410Z,80.10
2024-03-12T22:55:13.419Z,80.18
2024-03-12T22:57:43.297Z,80.14
2024-03-12T23:00:30.669Z,80.28
2024-03-12T23:03:02.322Z,80.35
2024-03-12T23:05:35.358Z,80.24
2024-03-12T23:08:07.324Z,80.33
2024-03-12T23:10:37.885Z,80.42
2024-03-12T23:13:08.307Z,80.51
2024-03-12T23:15:36.633Z,80.39
2024-03-12T23:18:06.556Z,80.30
2024-03-12T23:20:36.164Z,80.20
2024-03-12T23:23:06.495Z,80.44
2024-03-12T23:25:38.172Z,80.42
2024-03-12T23:28:07.145Z,80.34
2024-03-12T23:30:36.371Z,80.19
2024-03-12T23:33:09.703Z,80.30
2024-03-12T23:35:39.637Z,80.37
2024-03-12T23:38:08.971Z,80.50
2024-03-12T23:40:37.028Z,80.47
2024-03-12T23:43:05.937Z,80.13
2024-03-12T23:45:34.663Z,80.14
2024-03-12T23:48:04.164Z,79.86
2024-03-12T23:50:33.918Z,79.72
2024-03-12T23:53:03.478Z,79.76
2024-03-12T23:55:32.843Z,79.75
2024-03-12T23:58:02.045Z,79.59
